createdAt,value
2023-04-13T00:01:59.595Z,18.17
2023-04-13T00:07:05.059Z,16.23
2023-04-13T00:12:07.419Z,13.63
2023-04-13T00:17:10.151Z,10.98
2023-04-13T00:22:12.872Z,14.80
2023-04-13T00:27:15.048Z,13.40
2023-04-13T00:32:17.497Z,16.02
2023-04-13T00:37:20.465Z,18.08
2023-04-13T00:42:22.803Z,16.35
2023-04-13T00:47:29.090Z,16.15
2023-04-13T00:52:31.363Z,14.43
2023-04-13T00:57:34.532Z,15.30
2023-04-13T01:02:37.970Z,17.98
2023-04-13T01:07:51.865Z,13.63
2023-04-13T01:12:57.318Z,13.32
2023-04-13T01:18:07.624Z,12.45
2023-04-13T01:23:12.944Z,13.32
2023-04-13T01:28:19.813Z,10.82
2023-04-13T01:33:22.833Z,10.95
2023-04-13T01:38:25.668Z,9.60
2023-04-13T01:43:28.443Z,11.38
2023-04-13T01:48:37.867Z,9.05
2023-04-13T01:54:02.401Z,19.48
2023-04-13T01:59:05.446Z,21.15
2023-04-13T02:04:08.163Z,10.73
2023-04-13T02:09:11.435Z,11.68
2023-04-13T02:14:13.892Z,14.65
2023-04-13T02:19:16.068Z,10.70
2023-04-13T02:24:18.312Z,12.15
2023-04-13T02:29:20.477Z,6.35
2023-04-13T02:34:23.365Z,11.93
2023-04-13T02:39:25.591Z,8.43
2023-04-13T02:44:27.713Z,14.20
2023-04-13T02:49:29.952Z,17.38
2023-04-13T02:54:32.137Z,17.88
2023-04-13T02:59:34.311Z,12.63
2023-04-13T03:04:36.538Z,8.70
2023-04-13T03:09:39.990Z,12.52
2023-04-13T03:14:42.104Z,7.60
2023-04-13T03:19:48.095Z,7.10
2023-04-13T03:24:51.018Z,7.22
2023-04-13T03:29:53.190Z,10.63
2023-04-13T03:34:56.021Z,7.45
2023-04-13T03:39:59.147Z,9.23
2023-04-13T03:45:01.240Z,8.93
2023-04-13T03:50:04.149Z,8.70
2023-04-13T03:55:07.102Z,13.75
2023-04-13T04:00:14.358Z,22.08
2023-04-13T04:05:17.534Z,13.88
2023-04-13T04:10:20.046Z,10.15
2023-04-13T04:15:22.623Z,22.40
2023-04-13T04:20:25.023Z,20.13
2023-04-13T04:25:27.885Z,11.35
2023-04-13T04:30:30.687Z,14.10
2023-04-13T04:35:35.928Z,14.20
2023-04-13T04:40:38.377Z,13.32
2023-04-13T04:51:09.384Z,16.17
2023-04-13T04:56:11.468Z,15.82
2023-04-13T05:01:13.755Z,15.52
2023-04-13T05:06:16.153Z,20.20
2023-04-13T05:11:18.384Z,17.02
2023-04-13T05:16:20.556Z,13.43
2023-04-13T05:21:23.317Z,19.83
2023-04-13T05:26:25.820Z,14.93
2023-04-13T05:31:29.090Z,16.48
2023-04-13T05:36:32.570Z,15.45
2023-04-13T05:41:34.764Z,24.35
2023-04-13T05:46:37.028Z,17.63
2023-04-13T05:51:39.637Z,19.70
2023-04-13T05:56:41.837Z,14.27
2023-04-13T06:01:43.983Z,19.27
2023-04-13T06:06:46.796Z,13.93
2023-04-13T06:11:48.873Z,17.38
2023-04-13T06:16:52.925Z,12.93
2023-04-13T06:21:55.161Z,14.27
2023-04-13T06:26:58.610Z,16.33
2023-04-13T06:32:00.834Z,21.25
2023-04-13T06:37:06.345Z,14.35
2023-04-13T06:42:08.473Z,15.15
2023-04-13T06:47:10.762Z,14.38
2023-04-13T06:52:13.062Z,20.80
2023-04-13T06:57:15.125Z,11.77
2023-04-13T07:02:17.857Z,14.60
2023-04-13T07:07:20.593Z,13.27
2023-04-13T07:12:22.721Z,15.13
2023-04-13T07:17:25.204Z,14.05
2023-04-13T07:22:32.758Z,12.30
2023-04-13T07:27:34.981Z,16.40
2023-04-13T07:32:37.386Z,12.48
2023-04-13T07:37:39.868Z,17.83
2023-04-13T07:42:42.386Z,15.15
2023-04-13T07:47:44.545Z,10.93
2023-04-13T07:52:46.760Z,10.90
2023-04-13T07:57:49.168Z,8.02
2023-04-13T08:02:51.983Z,8.50
2023-04-13T08:07:54.361Z,8.23
2023-04-13T08:12:56.863Z,18.90
2023-04-13T08:18:00.117Z,6.72
2023-04-13T08:23:02.375Z,11.95
2023-04-13T08:28:05.469Z,9.02
2023-04-13T08:33:08.100Z,8.73
2023-04-13T08:38:10.572Z,7.90
2023-04-13T08:43:13.689Z,5.55
2023-04-13T08:48:19.660Z,4.63
2023-04-13T08:53:22.061Z,6.35
2023-04-13T08:58:26.202Z,9.13
2023-04-13T09:03:34.253Z,8.82
2023-04-13T09:08:37.040Z,6.07
2023-04-13T09:13:39.245Z,7.50
2023-04-13T09:18:54.397Z,5.50
2023-04-13T09:23:59.403Z,7.60
2023-04-13T09:29:03.565Z,7.45
2023-04-13T09:34:06.655Z,9.90
2023-04-13T09:39:08.845Z,6.30
2023-04-13T09:44:18.240Z,6.38
2023-04-13T09:54:23.231Z,6.15
2023-04-13T09:59:30.161Z,5.28
2023-04-13T10:04:35.072Z,4.13
2023-04-13T10:09:37.412Z,12.65
2023-04-13T10:14:43.956Z,3.63
2023-04-13T10:19:51.746Z,5.00
2023-04-13T10:24:53.902Z,2.83
2023-04-13T10:29:56.566Z,3.97
2023-04-13T10:35:16.604Z,4.38
2023-04-13T10:40:18.840Z,4.30
2023-04-13T10:45:26.676Z,3.85
2023-04-13T10:50:29.014Z,4.40
2023-04-13T10:55:35.639Z,4.47
2023-04-13T11:00:46.131Z,3.92
2023-04-13T11:06:00.303Z,2.70
2023-04-13T11:11:02.502Z,2.70
2023-04-13T11:16:06.059Z,3.25
2023-04-13T11:21:18.188Z,3.95
2023-04-13T11:26:32.031Z,5.63
2023-04-13T11:31:42.435Z,5.47
2023-04-13T11:36:49.244Z,3.50
2023-04-13T11:41:52.036Z,5.05
2023-04-13T11:46:54.404Z,3.30
2023-04-13T11:51:57.140Z,3.00
2023-04-13T11:56:59.310Z,4.22
2023-04-13T12:02:05.330Z,4.43
2023-04-13T12:07:14.126Z,3.08
2023-04-13T12:12:50.783Z,7.38
2023-04-13T12:17:48.646Z,4.28
2023-04-13T12:23:00.171Z,3.47
2023-04-13T12:28:05.256Z,4.82
2023-04-13T12:33:07.569Z,7.35
2023-04-13T12:38:09.801Z,3.65
2023-04-13T12:43:11.949Z,3.30
2023-04-13T12:48:14.130Z,2.58
2023-04-13T12:53:16.628Z,3.95
2023-04-13T12:58:18.964Z,5.32
2023-04-13T13:03:21.788Z,2.80
2023-04-13T13:08:24.052Z,3.13
2023-04-13T13:13:26.108Z,4.65
2023-04-13T13:18:38.418Z,2.35
2023-04-13T13:23:49.218Z,3.25
2023-04-13T13:28:52.406Z,3.42
2023-04-13T13:33:57.588Z,4.65
2023-04-13T13:39:00.438Z,5.53
2023-04-13T13:44:02.774Z,3.28
2023-04-13T13:49:05.657Z,4.28
2023-04-13T13:54:07.958Z,6.68
2023-04-13T13:59:10.113Z,3.15
2023-04-13T14:04:13.289Z,3.90
2023-04-13T14:09:15.483Z,6.68
2023-04-13T14:14:21.984Z,4.80
2023-04-13T14:19:25.039Z,3.60
2023-04-13T14:24:27.552Z,2.65
2023-04-13T14:29:29.862Z,4.25
2023-04-13T14:34:32.008Z,3.67
2023-04-13T14:39:34.541Z,2.80
2023-04-13T14:44:37.070Z,3.70
2023-04-13T14:49:39.348Z,4.97
2023-04-13T14:54:42.153Z,5.75
2023-04-13T14:59:45.264Z,7.00
2023-04-13T15:04:48.518Z,19.98
2023-04-13T15:09:50.805Z,7.05
2023-04-13T15:14:53.128Z,3.85
2023-04-13T15:19:55.503Z,4.78
2023-04-13T15:24:57.646Z,5.57
2023-04-13T15:30:00.642Z,4.90
2023-04-13T15:35:03.248Z,4.50
2023-04-13T15:40:08.028Z,3.22
2023-04-13T15:45:10.763Z,4.05
2023-04-13T15:50:13.777Z,3.28
2023-04-13T15:55:15.996Z,6.35
2023-04-13T16:00:18.698Z,5.22
2023-04-13T16:05:21.471Z,6.65
2023-04-13T16:10:23.749Z,2.70
2023-04-13T16:15:26.630Z,4.70
2023-04-13T16:20:29.057Z,5.18
2023-04-13T16:25:31.897Z,6.20
2023-04-13T16:30:34.190Z,5.68
2023-04-13T16:35:37.087Z,5.55
2023-04-13T16:40:39.547Z,8.38
2023-04-13T16:45:42.547Z,11.43
2023-04-13T16:50:44.759Z,3.20
2023-04-13T16:55:51.216Z,6.88
2023-04-13T17:00:54.055Z,6.05
2023-04-13T17:05:56.719Z,4.50
2023-04-13T17:10:59.516Z,5.55
2023-04-13T17:16:02.069Z,7.70
2023-04-13T17:21:04.717Z,9.18
2023-04-13T17:26:07.082Z,7.15
2023-04-13T17:31:09.530Z,10.27
2023-04-13T17:36:11.977Z,12.82
2023-04-13T17:41:14.317Z,7.47
2023-04-13T17:46:16.605Z,10.50
2023-04-13T17:51:18.978Z,11.40
2023-04-13T17:56:21.168Z,8.13
2023-04-13T18:01:26.046Z,9.95
2023-04-13T18:06:28.592Z,10.55
2023-04-13T18:11:31.075Z,9.05
2023-04-13T18:16:33.499Z,16.33
2023-04-13T18:21:37.399Z,10.75
2023-04-13T18:26:40.053Z,11.10
2023-04-13T18:31:42.528Z,28.98
2023-04-13T18:36:45.005Z,16.88
2023-04-13T18:41:47.694Z,12.52
2023-04-13T18:46:49.909Z,6.78
2023-04-13T18:51:52.180Z,12.02
2023-04-13T18:56:54.678Z,13.98
2023-04-13T19:01:57.110Z,9.02
2023-04-13T19:06:59.333Z,15.70
2023-04-13T19:12:03.134Z,13.75
2023-04-13T19:17:06.043Z,9.70
2023-04-13T19:22:08.291Z,6.68
2023-04-13T19:27:10.702Z,10.13
2023-04-13T19:32:13.298Z,9.93
2023-04-13T19:37:16.820Z,12.32
2023-04-13T19:42:19.136Z,13.45
2023-04-13T19:47:21.544Z,19.77
2023-04-13T19:52:23.851Z,13.80
2023-04-13T19:57:26.292Z,15.13
2023-04-13T20:02:28.993Z,16.15
2023-04-13T20:07:31.405Z,14.88
2023-04-13T20:12:34.238Z,12.10
2023-04-13T20:17:36.639Z,20.40
2023-04-13T20:22:39.329Z,14.20
2023-04-13T20:27:42.354Z,14.95
2023-04-13T20:32:44.953Z,18.20
2023-04-13T20:37:47.385Z,18.63
2023-04-13T20:42:49.660Z,18.77
2023-04-13T20:47:57.371Z,21.95
2023-04-13T20:53:00.122Z,15.25
2023-04-13T20:58:02.719Z,30.20
2023-04-13T21:03:05.482Z,12.85
2023-04-13T21:08:08.075Z,16.25
2023-04-13T21:13:11.224Z,13.25
2023-04-13T21:18:13.399Z,13.68
2023-04-13T21:23:16.857Z,18.13
2023-04-13T21:28:19.120Z,14.30
2023-04-13T21:33:21.770Z,14.18
2023-04-13T21:38:24.023Z,12.38
2023-04-13T21:43:26.573Z,14.50
2023-04-13T21:48:28.809Z,14.85
2023-04-13T21:53:31.270Z,14.05
2023-04-13T21:58:41.732Z,12.23
2023-04-13T22:03:47.286Z,14.15
2023-04-13T22:08:49.821Z,12.85
2023-04-13T22:13:52.099Z,14.60
2023-04-13T22:18:54.303Z,14.13
2023-04-13T22:23:56.654Z,13.45
2023-04-13T22:28:59.337Z,10.98
2023-04-13T22:34:02.067Z,12.57
2023-04-13T22:39:04.380Z,12.45
2023-04-13T22:44:06.716Z,13.20
2023-04-13T22:49:10.344Z,12.90
2023-04-13T22:54:12.680Z,20.92
2023-04-13T22:59:16.794Z,9.27
2023-04-13T23:04:19.294Z,12.63
2023-04-13T23:09:21.643Z,9.27
2023-04-13T23:14:24.101Z,13.85
2023-04-13T23:19:26.585Z,9.75
2023-04-13T23:24:29.061Z,10.52
2023-04-13T23:29:31.515Z,10.85
2023-04-13T23:34:33.729Z,11.50
2023-04-13T23:39:35.976Z,8.88
2023-04-13T23:44:38.188Z,14.27
2023-04-13T23:49:40.511Z,11.13
2023-04-13T23:54:42.685Z,10.23
2023-04-13T23:59:45.138Z,11.25
